馬公航空站 - ATIS

METAR RCQC 221130Z 03015KT 9999 SCT006 BKN010 BKN016 19/15 Q1018 NOSIG RMK A3006=

站台狀態:Online
最後更新:2019-02-22 19:45:01